createdAt,value
2022-07-29T00:00:58.152Z,19.20
2022-07-29T00:03:24.787Z,19.20
2022-07-29T00:05:53.898Z,19.20
2022-07-29T00:08:20.994Z,19.20
2022-07-29T00:10:47.815Z,19.10
2022-07-29T00:13:14.523Z,19.10
2022-07-29T00:15:41.190Z,19.10
2022-07-29T00:57:43.768Z,18.70
2022-07-29T01:00:13.761Z,18.60
2022-07-29T01:02:40.482Z,18.60
2022-07-29T01:05:08.280Z,18.60
2022-07-29T01:07:36.769Z,18.50
2022-07-29T01:10:08.864Z,18.50
2022-07-29T01:12:37.738Z,18.50
2022-07-29T01:15:08.256Z,18.40
2022-07-29T01:17:42.011Z,18.40
2022-07-29T01:20:42.620Z,18.40
2022-07-29T01:23:46.801Z,18.30
2022-07-29T01:26:41.645Z,18.20
2022-07-29T01:29:26.262Z,18.20
2022-07-29T01:32:20.319Z,18.10
2022-07-29T01:35:19.714Z,18.10
2022-07-29T01:38:14.317Z,18.10
2022-07-29T01:40:43.685Z,18.10
2022-07-29T01:43:18.173Z,18.00
2022-07-29T01:45:51.258Z,18.00
2022-07-29T01:48:23.720Z,18.00
2022-07-29T01:51:04.686Z,18.00
2022-07-29T01:53:39.689Z,18.00
2022-07-29T01:56:09.799Z,18.00
2022-07-29T01:58:39.497Z,18.00
2022-07-29T02:01:07.683Z,18.00
2022-07-29T02:03:36.620Z,18.00
2022-07-29T02:06:05.378Z,18.00
2022-07-29T02:08:34.114Z,18.00
2022-07-29T02:11:02.403Z,18.00
2022-07-29T02:13:30.819Z,18.00
2022-07-29T02:15:59.429Z,18.00
2022-07-29T02:18:28.976Z,18.00
2022-07-29T02:20:59.471Z,18.00
2022-07-29T02:23:27.131Z,18.10
2022-07-29T02:25:56.828Z,18.10
2022-07-29T02:28:26.456Z,18.10
2022-07-29T02:30:56.533Z,18.10
2022-07-29T02:33:25.078Z,18.10
2022-07-29T02:35:52.759Z,18.00
2022-07-29T02:38:39.592Z,18.00
2022-07-29T02:41:16.049Z,18.10
2022-07-29T02:43:44.787Z,18.10
2022-07-29T02:46:29.188Z,18.10
2022-07-29T02:49:02.415Z,18.10
2022-07-29T02:51:43.961Z,18.10
2022-07-29T02:54:19.715Z,18.00
2022-07-29T02:56:47.515Z,18.10
2022-07-29T02:59:17.499Z,18.10
2022-07-29T03:01:45.127Z,18.20
2022-07-29T03:04:13.420Z,18.20
2022-07-29T03:06:43.177Z,18.30
2022-07-29T03:09:13.481Z,18.30
2022-07-29T03:11:49.106Z,18.30
2022-07-29T03:14:20.154Z,18.30
2022-07-29T03:16:47.888Z,18.30
2022-07-29T03:19:15.386Z,18.30
2022-07-29T03:21:42.110Z,18.40
2022-07-29T03:24:10.865Z,18.40
2022-07-29T03:26:37.836Z,18.40
2022-07-29T03:29:04.410Z,18.50
2022-07-29T03:31:31.026Z,18.50
2022-07-29T03:33:58.410Z,18.50
2022-07-29T03:36:25.706Z,18.50
2022-07-29T03:38:52.811Z,18.40
2022-07-29T03:41:22.390Z,18.40
2022-07-29T03:43:52.641Z,18.40
2022-07-29T03:46:21.883Z,18.30
2022-07-29T03:48:51.506Z,18.30
2022-07-29T03:51:18.382Z,18.20
2022-07-29T03:54:00.358Z,18.10
2022-07-29T03:56:28.606Z,18.10
2022-07-29T03:58:56.438Z,18.00
2022-07-29T04:01:24.828Z,18.00
2022-07-29T04:03:52.320Z,18.00
2022-07-29T04:06:19.057Z,18.00
2022-07-29T04:08:45.743Z,18.00
2022-07-29T04:11:12.483Z,18.00
2022-07-29T04:13:39.067Z,18.00
2022-07-29T04:16:05.828Z,18.00
2022-07-29T04:18:32.490Z,17.90
2022-07-29T04:21:01.643Z,17.90
2022-07-29T04:23:33.332Z,17.90
2022-07-29T04:26:01.238Z,17.90
2022-07-29T04:28:27.863Z,17.90
2022-07-29T04:30:54.490Z,17.90
2022-07-29T04:33:21.117Z,17.90
2022-07-29T04:35:52.644Z,18.00
2022-07-29T04:38:21.630Z,18.00
2022-07-29T04:40:49.778Z,18.10
2022-07-29T04:43:16.722Z,18.10
2022-07-29T04:45:49.318Z,18.20
2022-07-29T04:48:15.880Z,18.30
2022-07-29T04:50:42.996Z,18.40
2022-07-29T04:53:09.660Z,18.50
2022-07-29T04:55:37.344Z,18.50
2022-07-29T04:58:05.770Z,18.60
2022-07-29T05:00:33.312Z,18.70
2022-07-29T05:03:00.573Z,18.80
2022-07-29T05:05:27.199Z,18.90
2022-07-29T05:07:54.099Z,19.00
2022-07-29T05:10:20.820Z,19.00
2022-07-29T05:12:47.543Z,19.00
2022-07-29T05:15:14.464Z,19.10
2022-07-29T05:17:41.117Z,19.20
2022-07-29T05:20:08.438Z,19.30
2022-07-29T05:22:35.063Z,19.50
2022-07-29T05:25:06.966Z,19.40
2022-07-29T05:27:36.569Z,19.50
2022-07-29T05:30:03.582Z,19.60
2022-07-29T05:32:30.170Z,19.70
2022-07-29T05:34:56.860Z,19.70
2022-07-29T05:37:23.471Z,19.90
2022-07-29T05:39:56.933Z,20.00
2022-07-29T05:42:26.809Z,20.10
2022-07-29T05:44:53.635Z,20.20
2022-07-29T05:47:20.323Z,20.50
2022-07-29T05:49:47.105Z,20.70
2022-07-29T05:52:16.540Z,20.90
2022-07-29T05:54:43.200Z,21.00
2022-07-29T05:57:15.756Z,21.30
2022-07-29T05:59:42.550Z,21.30
2022-07-29T06:02:09.470Z,21.40
2022-07-29T06:04:36.088Z,21.60
2022-07-29T06:07:02.898Z,21.90
2022-07-29T06:09:30.113Z,22.20
2022-07-29T06:11:57.005Z,22.20
2022-07-29T06:14:23.582Z,22.40
2022-07-29T06:16:50.280Z,22.50
2022-07-29T06:19:16.961Z,22.70
2022-07-29T06:21:44.676Z,22.80
2022-07-29T06:24:15.595Z,22.90
2022-07-29T06:26:43.114Z,23.30
2022-07-29T06:29:11.553Z,23.40
2022-07-29T06:31:38.575Z,23.40
2022-07-29T06:34:05.390Z,23.40
2022-07-29T06:36:34.950Z,23.70
2022-07-29T06:39:11.888Z,23.80
2022-07-29T06:41:39.006Z,23.70
2022-07-29T06:44:05.789Z,23.60
2022-07-29T06:46:33.172Z,23.60
2022-07-29T06:49:02.044Z,23.50
2022-07-29T06:51:28.695Z,23.50
2022-07-29T06:54:00.238Z,23.40
2022-07-29T06:56:38.872Z,23.30
2022-07-29T06:59:06.662Z,23.30
2022-07-29T07:01:33.636Z,23.60
2022-07-29T07:04:00.314Z,23.80
2022-07-29T07:06:27.009Z,24.00
2022-07-29T07:36:34.773Z,24.10
2022-07-29T07:39:01.793Z,24.00
2022-07-29T07:41:28.473Z,24.50
2022-07-29T07:43:59.837Z,25.00
2022-07-29T07:46:26.432Z,25.20
2022-07-29T07:48:53.246Z,25.50
2022-07-29T07:51:19.939Z,25.70
2022-07-29T07:53:50.310Z,25.70
2022-07-29T07:56:17.694Z,25.40
2022-07-29T07:58:44.303Z,25.30
2022-07-29T08:01:11.362Z,25.30
2022-07-29T08:03:38.876Z,25.40
2022-07-29T08:06:06.056Z,25.30
2022-07-29T08:08:32.967Z,25.50
2022-07-29T08:11:01.331Z,25.60
2022-07-29T08:13:31.479Z,25.60
2022-07-29T08:15:59.093Z,25.70
2022-07-29T08:18:30.313Z,24.80
2022-07-29T08:20:57.418Z,25.30
2022-07-29T08:23:24.098Z,25.30
2022-07-29T08:25:52.185Z,25.30
2022-07-29T08:28:21.547Z,25.40
2022-07-29T08:30:52.585Z,25.30
2022-07-29T08:33:19.205Z,25.20
2022-07-29T08:35:46.561Z,25.10
2022-07-29T08:38:13.137Z,25.00
2022-07-29T08:40:40.473Z,25.10
2022-07-29T08:43:08.545Z,25.20
2022-07-29T08:45:47.756Z,25.30
2022-07-29T08:48:17.278Z,25.40
2022-07-29T08:50:46.310Z,25.30
2022-07-29T08:53:16.089Z,24.80
2022-07-29T08:55:45.817Z,25.10
2022-07-29T08:58:13.577Z,25.50
2022-07-29T09:00:50.073Z,25.80
2022-07-29T09:03:20.827Z,25.90
2022-07-29T09:05:48.441Z,26.00
2022-07-29T09:08:16.238Z,26.00
2022-07-29T09:10:43.219Z,26.00
2022-07-29T09:13:10.109Z,26.20
2022-07-29T09:15:37.025Z,26.50
2022-07-29T09:18:03.755Z,26.50
2022-07-29T09:20:50.352Z,26.30
2022-07-29T09:23:23.300Z,26.30
2022-07-29T09:25:51.274Z,26.50
2022-07-29T09:28:18.497Z,26.60
2022-07-29T09:30:56.422Z,26.70
2022-07-29T09:33:24.262Z,26.50
2022-07-29T09:36:06.284Z,26.60
2022-07-29T09:38:34.368Z,26.70
2022-07-29T09:41:05.998Z,26.90
2022-07-29T09:43:34.105Z,27.10
2022-07-29T09:46:14.487Z,27.10
2022-07-29T09:48:41.329Z,26.80
2022-07-29T09:51:21.255Z,26.80
2022-07-29T09:53:48.821Z,26.60
2022-07-29T09:56:15.517Z,27.00
2022-07-29T09:58:42.094Z,27.20
2022-07-29T10:01:08.929Z,27.20
2022-07-29T10:03:52.774Z,26.90
2022-07-29T10:06:19.470Z,26.70
2022-07-29T10:08:46.659Z,26.30
2022-07-29T10:11:15.795Z,26.00
2022-07-29T10:13:45.005Z,25.90
2022-07-29T10:16:13.945Z,25.90
2022-07-29T10:18:42.689Z,25.80
2022-07-29T10:21:10.430Z,25.70
2022-07-29T10:23:46.282Z,25.70
2022-07-29T10:26:13.742Z,25.60
2022-07-29T10:28:40.373Z,25.60
2022-07-29T10:31:12.151Z,25.50
2022-07-29T10:34:25.320Z,25.60
2022-07-29T10:37:03.610Z,25.70
2022-07-29T10:39:59.355Z,25.50
2022-07-29T10:42:29.867Z,25.40
2022-07-29T10:45:01.609Z,25.30
2022-07-29T10:47:28.702Z,25.30
2022-07-29T10:50:01.356Z,25.10
2022-07-29T10:52:50.020Z,25.10
2022-07-29T10:55:37.625Z,25.00
2022-07-29T10:58:15.350Z,24.90
2022-07-29T11:00:42.263Z,24.90
2022-07-29T11:03:41.396Z,24.80
2022-07-29T11:06:16.690Z,24.60
2022-07-29T11:08:44.773Z,24.40
2022-07-29T11:39:55.554Z,25.60
2022-07-29T11:42:28.181Z,25.80
2022-07-29T11:45:42.734Z,25.80
2022-07-29T11:48:27.901Z,25.80
2022-07-29T11:50:48.863Z,26.00
2022-07-29T11:53:17.003Z,26.60
2022-07-29T11:55:50.772Z,26.80
2022-07-29T11:58:24.850Z,26.70
2022-07-29T12:00:52.422Z,27.00
2022-07-29T12:03:35.601Z,27.40
2022-07-29T12:06:11.760Z,27.30
2022-07-29T12:08:43.969Z,27.30
2022-07-29T12:11:22.869Z,27.10
2022-07-29T12:13:51.655Z,26.70
2022-07-29T12:16:25.945Z,26.80
2022-07-29T12:19:03.771Z,27.10
2022-07-29T12:21:52.231Z,27.40
2022-07-29T12:24:26.772Z,26.70
2022-07-29T12:27:01.027Z,26.40
2022-07-29T12:29:33.681Z,26.00
2022-07-29T12:32:01.519Z,26.00
2022-07-29T12:34:30.293Z,25.90
2022-07-29T12:36:57.192Z,26.10
2022-07-29T12:39:27.267Z,26.10
2022-07-29T12:42:03.878Z,26.20
2022-07-29T12:44:48.179Z,26.20
2022-07-29T12:47:15.912Z,25.80
2022-07-29T12:49:42.486Z,25.30
2022-07-29T12:52:25.912Z,25.20
2022-07-29T12:54:52.537Z,24.90
2022-07-29T12:57:20.113Z,24.80
2022-07-29T13:00:06.313Z,24.80
2022-07-29T13:02:33.106Z,24.90
2022-07-29T13:05:01.254Z,25.00
2022-07-29T13:07:54.111Z,25.00
2022-07-29T13:10:24.244Z,24.90
2022-07-29T13:13:08.956Z,24.70
2022-07-29T13:15:36.891Z,24.70
2022-07-29T13:18:05.038Z,24.60
2022-07-29T13:20:32.127Z,24.60
2022-07-29T13:23:01.607Z,24.60
2022-07-29T13:25:30.930Z,24.70
2022-07-29T13:27:57.574Z,24.70
2022-07-29T13:30:24.725Z,24.60
2022-07-29T13:32:53.582Z,24.50
2022-07-29T13:35:20.820Z,24.50
2022-07-29T13:37:47.519Z,24.60
2022-07-29T13:40:14.964Z,24.90
2022-07-29T13:42:41.975Z,25.20
2022-07-29T13:45:10.283Z,25.90
2022-07-29T13:47:37.105Z,26.50
2022-07-29T13:50:06.855Z,27.00
2022-07-29T13:52:34.763Z,27.20
2022-07-29T15:54:03.819Z,27.30
2022-07-29T15:56:30.903Z,27.20
2022-07-29T15:58:57.731Z,27.10
2022-07-29T16:01:24.996Z,27.20
2022-07-29T16:03:51.713Z,27.20
2022-07-29T16:06:18.435Z,27.20
2022-07-29T16:08:45.409Z,27.10
2022-07-29T16:11:12.014Z,27.40
2022-07-29T16:13:38.614Z,27.50
2022-07-29T16:16:05.346Z,27.60
2022-07-29T16:18:31.999Z,27.80
2022-07-29T16:20:58.866Z,27.50
2022-07-29T16:23:25.513Z,27.20
2022-07-29T16:26:01.211Z,27.10
2022-07-29T16:28:29.250Z,27.20
2022-07-29T16:30:55.993Z,27.20
2022-07-29T16:33:23.444Z,27.10
2022-07-29T16:35:50.934Z,27.10
2022-07-29T16:38:17.740Z,27.20
2022-07-29T16:40:44.482Z,27.30
2022-07-29T16:43:11.031Z,27.10
2022-07-29T16:45:45.928Z,26.90
2022-07-29T16:48:15.026Z,26.80
2022-07-29T16:50:44.853Z,26.80
2022-07-29T16:53:11.565Z,26.80
2022-07-29T16:55:38.573Z,26.70
2022-07-29T16:58:09.550Z,26.60
2022-07-29T17:00:36.402Z,26.60
2022-07-29T17:03:03.139Z,26.50
2022-07-29T17:05:29.753Z,26.50
2022-07-29T17:08:16.574Z,26.50
2022-07-29T17:10:43.176Z,26.60
2022-07-29T17:13:09.818Z,26.70
2022-07-29T17:15:36.682Z,27.00
2022-07-29T17:18:03.488Z,27.60
2022-07-29T17:20:40.993Z,28.00
2022-07-29T17:23:07.635Z,27.90
2022-07-29T17:25:34.298Z,27.80
2022-07-29T17:28:01.481Z,27.90
2022-07-29T17:30:28.762Z,27.90
2022-07-29T17:32:55.641Z,27.90
2022-07-29T17:58:12.170Z,26.90
2022-07-29T18:00:39.009Z,26.70
2022-07-29T18:03:05.858Z,26.40
2022-07-29T18:05:32.936Z,26.30
2022-07-29T18:07:59.582Z,26.10
2022-07-29T18:10:26.185Z,26.10
2022-07-29T18:12:52.925Z,26.00
2022-07-29T18:15:19.603Z,25.90
2022-07-29T18:17:56.956Z,25.80
2022-07-29T18:20:27.498Z,25.70
2022-07-29T18:25:23.648Z,25.40
2022-07-29T18:27:50.541Z,25.40
2022-07-29T18:30:17.273Z,25.30
2022-07-29T18:32:59.211Z,25.20
2022-07-29T18:35:31.171Z,25.10
2022-07-29T19:22:34.273Z,22.50
2022-07-29T19:25:00.894Z,22.40
2022-07-29T19:27:27.534Z,22.40
2022-07-29T19:29:58.966Z,22.20
2022-07-29T19:32:26.350Z,22.20
2022-07-29T19:35:11.623Z,22.30
2022-07-29T19:37:38.233Z,22.20
2022-07-29T19:40:06.166Z,22.20
2022-07-29T19:42:32.807Z,22.20
2022-07-29T19:44:59.443Z,22.10
2022-07-29T19:47:26.041Z,22.10
2022-07-29T19:49:52.708Z,21.90
2022-07-29T19:52:19.367Z,21.90
2022-07-29T19:54:45.934Z,21.70
2022-07-29T19:57:12.542Z,21.60
2022-07-29T19:59:40.863Z,21.50
2022-07-29T20:02:10.640Z,21.40
2022-07-29T20:04:37.598Z,21.30
2022-07-29T20:07:05.093Z,21.30
2022-07-29T20:09:31.811Z,21.30
2022-07-29T20:11:58.671Z,21.40
2022-07-29T20:14:25.298Z,21.40
2022-07-29T20:16:53.934Z,21.30
2022-07-29T20:19:20.524Z,21.10
2022-07-29T20:21:47.114Z,21.20
2022-07-29T20:24:13.762Z,21.10
2022-07-29T20:26:40.364Z,21.10
2022-07-29T20:29:06.998Z,21.00
2022-07-29T20:31:33.713Z,20.90
2022-07-29T20:34:01.416Z,20.80
2022-07-29T20:36:28.351Z,20.80
2022-07-29T20:38:55.581Z,20.60
2022-07-29T20:41:22.422Z,20.50
2022-07-29T20:43:49.821Z,20.30
2022-07-29T20:46:16.713Z,20.20
2022-07-29T20:48:43.580Z,20.20
2022-07-29T20:51:10.524Z,20.10
2022-07-29T20:53:41.294Z,20.00
2022-07-29T20:56:08.138Z,19.90
2022-07-29T20:58:36.223Z,20.00
2022-07-29T21:01:04.066Z,20.00
2022-07-29T21:03:30.864Z,19.80
2022-07-29T21:05:57.455Z,19.70
2022-07-29T21:08:24.408Z,19.70
2022-07-29T21:10:51.132Z,19.60
2022-07-29T21:13:18.631Z,19.60
2022-07-29T21:15:49.157Z,19.50
2022-07-29T21:18:32.369Z,19.40
2022-07-29T21:21:04.507Z,19.30
2022-07-29T21:23:31.557Z,19.30
2022-07-29T21:25:58.328Z,19.40
2022-07-29T21:28:27.795Z,19.40
2022-07-29T21:30:59.016Z,19.40
2022-07-29T21:33:30.817Z,19.40
2022-07-29T21:36:21.443Z,19.40
2022-07-29T21:38:44.113Z,19.50
2022-07-29T21:41:12.407Z,19.40
2022-07-29T21:43:41.845Z,19.40
2022-07-29T21:46:09.036Z,19.40
2022-07-29T21:48:35.942Z,19.30
2022-07-29T21:51:02.652Z,19.20
2022-07-29T21:53:29.253Z,19.10
2022-07-29T21:55:57.589Z,19.00
2022-07-29T21:58:24.623Z,18.90
2022-07-29T22:00:52.180Z,18.90
2022-07-29T22:03:18.961Z,18.70
2022-07-29T22:30:17.770Z,18.30
2022-07-29T22:32:44.639Z,18.30
2022-07-29T22:35:11.343Z,18.20
2022-07-29T22:37:38.001Z,18.10
2022-07-29T22:40:05.665Z,18.10
2022-07-29T22:42:32.980Z,18.10
2022-07-29T22:44:59.576Z,18.10
2022-07-29T22:47:46.271Z,18.00
2022-07-29T22:50:13.055Z,18.00
2022-07-29T22:52:39.672Z,18.10
2022-07-29T22:55:06.720Z,18.10
2022-07-29T22:57:33.325Z,18.10
2022-07-29T23:00:02.103Z,18.10
2022-07-29T23:02:29.085Z,18.10
2022-07-29T23:04:55.987Z,18.10
2022-07-29T23:07:23.115Z,18.10
2022-07-29T23:09:50.102Z,18.00
2022-07-29T23:12:16.724Z,18.00
2022-07-29T23:14:43.950Z,17.90
